createdAt,value
2018-11-14T00:01:47.954Z,1.90
2018-11-14T00:04:18.255Z,2.15
2018-11-14T00:06:47.454Z,1.85
2018-11-14T00:09:16.721Z,1.95
2018-11-14T00:11:45.867Z,1.92
2018-11-14T00:14:15.062Z,2.40
2018-11-14T00:16:44.325Z,1.82
2018-11-14T00:19:13.864Z,1.77
2018-11-14T00:21:43.134Z,1.98
2018-11-14T00:24:12.443Z,1.90
2018-11-14T00:26:43.604Z,2.05
2018-11-14T00:29:12.884Z,1.80
2018-11-14T00:31:42.965Z,2.10
2018-11-14T00:34:12.933Z,2.25
2018-11-14T00:36:42.299Z,2.08
2018-11-14T00:39:12.817Z,2.25
2018-11-14T00:41:43.090Z,2.00
2018-11-14T00:44:12.862Z,2.35
2018-11-14T00:46:42.741Z,2.50
2018-11-14T00:49:12.060Z,2.45
2018-11-14T00:51:41.485Z,1.90
2018-11-14T00:54:10.638Z,1.80
2018-11-14T00:56:40.221Z,1.90
2018-11-14T00:59:09.373Z,2.30
2018-11-14T01:01:39.049Z,1.72
2018-11-14T01:04:08.258Z,2.00
2018-11-14T01:06:37.499Z,1.77
2018-11-14T01:09:08.708Z,2.05
2018-11-14T01:11:38.062Z,2.22
2018-11-14T01:14:09.614Z,2.22
2018-11-14T01:16:40.148Z,1.80
2018-11-14T01:19:10.638Z,2.33
2018-11-14T01:21:40.580Z,2.27
2018-11-14T01:24:09.772Z,2.15
2018-11-14T01:26:40.207Z,2.20
2018-11-14T01:29:09.489Z,2.17
2018-11-14T01:31:39.524Z,2.37
2018-11-14T01:34:10.190Z,2.25
2018-11-14T01:36:39.443Z,2.10
2018-11-14T01:39:10.671Z,2.15
2018-11-14T01:41:42.523Z,2.17
2018-11-14T01:44:12.546Z,1.90
2018-11-14T01:46:42.245Z,2.20
2018-11-14T01:49:11.398Z,2.22
2018-11-14T01:51:42.380Z,1.98
2018-11-14T01:54:11.966Z,1.92
2018-11-14T01:56:42.513Z,1.95
2018-11-14T01:59:11.767Z,1.95
2018-11-14T02:01:42.199Z,2.40
2018-11-14T02:04:11.870Z,2.12
2018-11-14T02:06:41.501Z,2.27
2018-11-14T02:09:10.839Z,2.02
2018-11-14T02:11:39.937Z,2.35
2018-11-14T02:14:10.162Z,1.90
2018-11-14T02:16:39.498Z,2.05
2018-11-14T02:19:09.434Z,2.45
2018-11-14T02:21:38.645Z,1.80
2018-11-14T02:24:08.183Z,1.82
2018-11-14T02:26:37.863Z,1.98
2018-11-14T02:29:08.759Z,2.08
2018-11-14T02:31:38.950Z,1.87
2018-11-14T02:34:09.551Z,2.05
2018-11-14T02:36:39.159Z,1.80
2018-11-14T02:39:09.153Z,2.10
2018-11-14T02:41:38.891Z,2.30
2018-11-14T02:44:08.059Z,1.90
2018-11-14T02:46:37.553Z,1.42
2018-11-14T02:49:07.719Z,1.85
2018-11-14T02:51:37.544Z,1.80
2018-11-14T02:54:06.874Z,1.80
2018-11-14T02:56:37.053Z,1.60
2018-11-14T02:59:06.631Z,1.98
2018-11-14T03:01:36.630Z,2.00
2018-11-14T03:04:05.857Z,2.20
2018-11-14T03:06:35.126Z,1.90
2018-11-14T03:09:05.103Z,1.82
2018-11-14T03:11:36.686Z,2.20
2018-11-14T03:14:07.025Z,1.80
2018-11-14T03:16:36.335Z,1.90
2018-11-14T03:19:05.735Z,1.90
2018-11-14T03:21:42.864Z,2.05
2018-11-14T03:24:12.637Z,1.98
2018-11-14T03:26:43.948Z,1.90
2018-11-14T03:29:13.067Z,2.17
2018-11-14T03:31:43.612Z,1.77
2018-11-14T03:34:13.550Z,1.93
2018-11-14T03:36:42.730Z,1.80
2018-11-14T03:39:13.169Z,2.00
2018-11-14T03:41:43.599Z,1.72
2018-11-14T03:44:14.013Z,2.20
2018-11-14T03:46:43.730Z,2.02
2018-11-14T03:49:12.919Z,1.77
2018-11-14T03:51:42.052Z,1.87
2018-11-14T03:54:11.898Z,1.75
2018-11-14T03:56:41.915Z,2.00
2018-11-14T03:59:11.774Z,1.90
2018-11-14T04:01:41.786Z,2.07
2018-11-14T04:04:11.019Z,2.52
2018-11-14T04:06:40.861Z,1.70
2018-11-14T04:09:12.578Z,1.72
2018-11-14T04:11:42.823Z,1.90
2018-11-14T04:14:11.971Z,2.42
2018-11-14T04:16:41.553Z,2.08
2018-11-14T04:19:10.656Z,1.95
2018-11-14T04:21:39.808Z,2.20
2018-11-14T04:24:09.514Z,2.40
2018-11-14T04:26:40.319Z,2.15
2018-11-14T04:29:09.600Z,1.55
2018-11-14T04:31:39.135Z,1.90
2018-11-14T04:34:08.975Z,1.85
2018-11-14T04:36:38.970Z,1.60
2018-11-14T04:39:10.957Z,2.33
2018-11-14T04:41:41.287Z,1.90
2018-11-14T04:44:11.791Z,2.08
2018-11-14T04:46:41.519Z,2.20
2018-11-14T04:49:10.662Z,1.80
2018-11-14T04:51:39.827Z,2.20
2018-11-14T04:54:09.148Z,2.35
2018-11-14T04:56:38.786Z,2.15
2018-11-14T04:59:08.079Z,1.82
2018-11-14T05:01:38.818Z,1.95
2018-11-14T05:04:09.335Z,2.33
2018-11-14T05:06:44.257Z,2.12
2018-11-14T05:09:13.445Z,2.17
2018-11-14T05:11:43.351Z,2.50
2018-11-14T05:14:13.669Z,2.15
2018-11-14T05:16:43.607Z,2.55
2018-11-14T05:19:13.259Z,2.22
2018-11-14T05:21:43.537Z,2.30
2018-11-14T05:24:12.648Z,2.50
2018-11-14T05:26:42.818Z,2.70
2018-11-14T05:29:12.441Z,2.90
2018-11-14T05:31:43.126Z,2.47
2018-11-14T05:34:12.940Z,2.25
2018-11-14T05:36:42.105Z,2.40
2018-11-14T05:39:12.770Z,2.40
2018-11-14T05:41:42.261Z,2.55
2018-11-14T05:44:11.358Z,2.90
2018-11-14T05:46:40.598Z,2.27
2018-11-14T05:49:10.576Z,2.95
2018-11-14T05:51:40.230Z,3.15
2018-11-14T05:54:09.767Z,2.33
2018-11-14T05:56:39.813Z,3.65
2018-11-14T05:59:08.965Z,3.10
2018-11-14T06:01:39.274Z,3.10
2018-11-14T06:04:09.803Z,3.70
2018-11-14T06:06:39.670Z,2.98
2018-11-14T06:09:11.233Z,4.03
2018-11-14T06:11:41.679Z,3.60
2018-11-14T06:14:11.570Z,3.90
2018-11-14T06:16:41.593Z,4.00
2018-11-14T06:19:10.777Z,4.35
2018-11-14T06:21:40.625Z,4.67
2018-11-14T06:24:10.370Z,5.87
2018-11-14T06:26:41.048Z,7.53
2018-11-14T06:29:11.360Z,5.50
2018-11-14T06:31:41.115Z,6.28
2018-11-14T06:34:10.832Z,6.30
2018-11-14T06:36:40.007Z,5.90
2018-11-14T06:39:10.775Z,5.85
2018-11-14T06:41:42.420Z,5.65
2018-11-14T06:44:12.499Z,5.83
2018-11-14T06:46:43.107Z,4.93
2018-11-14T06:49:13.557Z,5.17
2018-11-14T06:51:45.066Z,5.53
2018-11-14T06:54:17.218Z,5.20
2018-11-14T06:56:49.272Z,5.37
2018-11-14T06:59:19.449Z,4.83
2018-11-14T07:01:51.522Z,5.58
2018-11-14T07:04:21.302Z,12.93
2018-11-14T07:06:50.866Z,15.43
2018-11-14T07:09:20.859Z,11.93
2018-11-14T07:11:51.188Z,8.30
2018-11-14T07:14:23.100Z,8.83
2018-11-14T07:16:52.943Z,9.60
2018-11-14T07:19:23.699Z,7.13
2018-11-14T07:21:54.408Z,7.13
2018-11-14T07:24:25.834Z,7.07
2018-11-14T07:26:59.033Z,6.70
2018-11-14T07:29:32.901Z,6.50
2018-11-14T07:32:04.378Z,6.80
2018-11-14T07:34:37.911Z,7.00
2018-11-14T07:37:07.642Z,6.87
2018-11-14T07:39:41.726Z,7.33
2018-11-14T07:42:13.405Z,7.30
2018-11-14T07:44:44.567Z,7.05
2018-11-14T07:47:14.723Z,7.67
2018-11-14T07:49:44.476Z,7.45
2018-11-14T07:52:14.530Z,7.62
2018-11-14T07:54:44.487Z,7.30
2018-11-14T07:57:17.367Z,7.45
2018-11-14T07:59:49.050Z,7.00
2018-11-14T08:02:18.936Z,6.75
2018-11-14T08:04:49.336Z,7.67
2018-11-14T08:07:19.163Z,7.65
2018-11-14T08:09:50.451Z,7.08
2018-11-14T08:12:20.490Z,7.40
2018-11-14T08:14:50.501Z,7.25
2018-11-14T08:17:21.336Z,7.60
2018-11-14T08:19:51.795Z,7.35
2018-11-14T08:22:22.811Z,7.45
2018-11-14T08:24:52.752Z,6.87
2018-11-14T08:27:24.623Z,7.72
2018-11-14T08:30:01.190Z,6.67
2018-11-14T08:32:32.846Z,6.95
2018-11-14T08:35:05.221Z,7.20
2018-11-14T08:37:35.095Z,7.00
2018-11-14T08:40:06.519Z,7.55
2018-11-14T08:42:38.571Z,7.58
2018-11-14T08:45:10.312Z,7.53
2018-11-14T08:47:41.235Z,7.55
2018-11-14T08:50:13.658Z,7.30
2018-11-14T08:52:45.254Z,7.12
2018-11-14T08:55:17.679Z,7.80
2018-11-14T08:57:48.018Z,7.53
2018-11-14T09:00:20.900Z,6.87
2018-11-14T09:02:53.932Z,7.37
2018-11-14T09:05:23.787Z,7.97
2018-11-14T09:07:53.927Z,7.55
2018-11-14T09:10:27.312Z,8.08
2018-11-14T09:12:57.552Z,7.45
2018-11-14T09:15:28.465Z,8.20
2018-11-14T09:17:58.822Z,7.30
2018-11-14T09:20:30.336Z,7.30
2018-11-14T09:23:00.332Z,7.15
2018-11-14T09:25:33.293Z,7.53
2018-11-14T09:28:05.391Z,7.35
2018-11-14T09:30:37.779Z,7.30
2018-11-14T09:33:09.853Z,7.37
2018-11-14T09:35:41.672Z,7.58
2018-11-14T09:38:11.512Z,8.30
2018-11-14T09:40:43.703Z,6.90
2018-11-14T09:43:13.517Z,7.45
2018-11-14T09:45:43.434Z,7.97
2018-11-14T09:48:13.629Z,8.08
2018-11-14T09:50:43.920Z,7.20
2018-11-14T09:53:13.983Z,7.37
2018-11-14T09:55:45.663Z,7.87
2018-11-14T09:58:15.794Z,7.90
2018-11-14T10:00:45.749Z,8.03
2018-11-14T10:03:17.050Z,7.30
2018-11-14T10:05:47.406Z,7.78
2018-11-14T10:08:19.098Z,7.87
2018-11-14T10:10:52.209Z,8.00
2018-11-14T10:13:22.133Z,7.62
2018-11-14T10:15:54.101Z,8.15
2018-11-14T10:18:24.178Z,9.38
2018-11-14T10:20:54.104Z,8.05
2018-11-14T10:23:26.418Z,7.35
2018-11-14T10:25:59.440Z,7.30
2018-11-14T10:28:31.430Z,7.67
2018-11-14T10:31:05.955Z,7.87
2018-11-14T10:33:38.017Z,7.20
2018-11-14T10:36:07.720Z,7.50
2018-11-14T10:38:37.602Z,7.87
2018-11-14T10:41:10.134Z,7.75
2018-11-14T10:43:40.315Z,7.83
2018-11-14T10:46:10.807Z,7.85
2018-11-14T10:48:41.177Z,8.78
2018-11-14T10:51:10.652Z,7.33
2018-11-14T10:53:39.715Z,8.45
2018-11-14T10:56:09.702Z,8.50
2018-11-14T10:58:38.831Z,7.97
2018-11-14T11:01:13.419Z,8.93
2018-11-14T11:03:47.814Z,7.75
2018-11-14T11:06:48.302Z,8.08
2018-11-14T11:09:23.705Z,8.20
2018-11-14T11:11:58.102Z,8.50
2018-11-14T11:15:34.088Z,8.03
2018-11-14T11:18:06.479Z,7.72
2018-11-14T11:20:37.627Z,8.18
2018-11-14T11:23:07.181Z,7.90
2018-11-14T11:25:36.424Z,8.10
2018-11-14T11:28:06.358Z,8.08
2018-11-14T11:30:37.598Z,8.53
2018-11-14T11:33:07.598Z,7.78
2018-11-14T11:35:37.331Z,7.87
2018-11-14T11:38:06.779Z,7.83
2018-11-14T11:40:36.626Z,6.90
2018-11-14T11:43:06.411Z,7.03
2018-11-14T11:45:36.174Z,7.70
2018-11-14T11:48:05.753Z,6.80
2018-11-14T11:50:34.998Z,7.35
2018-11-14T11:53:04.191Z,7.10
2018-11-14T11:55:34.049Z,6.50
2018-11-14T11:58:03.578Z,6.58
2018-11-14T12:00:33.527Z,6.50
2018-11-14T12:03:03.278Z,7.65
2018-11-14T12:05:32.546Z,6.50
2018-11-14T12:08:02.879Z,7.45
2018-11-14T12:10:32.652Z,6.83
2018-11-14T12:13:01.788Z,7.00
2018-11-14T12:15:31.662Z,6.47
2018-11-14T12:18:01.667Z,7.00
2018-11-14T12:20:30.776Z,6.47
2018-11-14T12:22:59.985Z,6.20
2018-11-14T12:25:29.182Z,5.95
2018-11-14T12:27:59.362Z,6.20
2018-11-14T12:30:29.445Z,6.67
2018-11-14T12:32:58.953Z,5.80
2018-11-14T12:35:28.105Z,6.45
2018-11-14T12:37:57.214Z,6.10
2018-11-14T12:40:27.302Z,5.90
2018-11-14T12:42:56.410Z,5.95
2018-11-14T12:45:25.518Z,5.92
2018-11-14T12:47:55.256Z,6.05
2018-11-14T12:50:24.347Z,5.28
2018-11-14T12:52:53.522Z,5.87
2018-11-14T12:55:23.723Z,5.75
2018-11-14T12:57:52.811Z,6.00
2018-11-14T13:00:22.403Z,5.90
2018-11-14T13:02:52.826Z,6.08
2018-11-14T13:05:22.671Z,5.47
2018-11-14T13:07:51.838Z,5.55
2018-11-14T13:10:21.109Z,5.37
2018-11-14T13:12:50.625Z,5.60
2018-11-14T13:15:21.294Z,5.40
2018-11-14T13:17:50.497Z,4.97
2018-11-14T13:20:21.615Z,5.60
2018-11-14T13:22:50.802Z,5.50
2018-11-14T13:25:20.059Z,5.58
2018-11-14T13:27:50.015Z,5.78
2018-11-14T13:30:21.329Z,6.00
2018-11-14T13:32:51.478Z,5.67
2018-11-14T13:35:22.336Z,5.45
2018-11-14T13:37:51.923Z,5.45
2018-11-14T13:40:22.438Z,5.40
2018-11-14T13:42:52.186Z,4.97
2018-11-14T13:45:21.298Z,5.20
2018-11-14T13:47:50.626Z,5.67
2018-11-14T13:50:21.379Z,5.33
2018-11-14T13:52:50.708Z,4.78
2018-11-14T13:55:22.486Z,5.85
2018-11-14T13:57:52.827Z,5.05
2018-11-14T14:00:22.804Z,5.08
2018-11-14T14:02:53.123Z,5.22
2018-11-14T14:05:23.742Z,5.10
2018-11-14T14:07:53.047Z,5.17
2018-11-14T14:10:23.214Z,4.62
2018-11-14T14:12:55.175Z,5.78
2018-11-14T14:15:25.746Z,4.90
2018-11-14T14:17:55.557Z,5.12
2018-11-14T14:20:25.988Z,5.00
2018-11-14T14:22:55.416Z,4.70
2018-11-14T14:25:24.524Z,5.03
2018-11-14T14:27:54.546Z,5.28
2018-11-14T14:30:24.682Z,5.70
2018-11-14T14:32:54.790Z,4.75
2018-11-14T14:35:25.608Z,4.97
2018-11-14T14:37:55.470Z,4.72
2018-11-14T14:40:25.355Z,4.72
2018-11-14T14:42:54.441Z,4.67
2018-11-14T14:45:25.150Z,4.80
2018-11-14T14:47:54.741Z,5.20
2018-11-14T14:50:25.446Z,5.45
2018-11-14T14:52:55.243Z,5.05
2018-11-14T14:55:26.494Z,4.60
2018-11-14T14:57:55.579Z,4.72
2018-11-14T15:00:25.945Z,4.40
2018-11-14T15:02:55.808Z,5.42
2018-11-14T15:05:24.963Z,5.20
2018-11-14T15:07:54.830Z,4.08
2018-11-14T15:10:24.964Z,4.78
2018-11-14T15:12:54.037Z,4.47
2018-11-14T15:15:23.756Z,4.50
2018-11-14T15:17:52.876Z,4.37
2018-11-14T15:20:24.015Z,4.83
2018-11-14T15:22:53.286Z,5.07
2018-11-14T15:25:23.625Z,4.42
2018-11-14T15:27:53.835Z,4.72
2018-11-14T15:30:26.500Z,4.08
2018-11-14T15:32:56.618Z,4.35
2018-11-14T15:35:25.839Z,4.72
2018-11-14T15:37:55.025Z,5.40
2018-11-14T15:40:26.246Z,4.97
2018-11-14T15:42:55.535Z,5.20
2018-11-14T15:45:29.598Z,5.70
2018-11-14T15:47:59.055Z,4.55
2018-11-14T15:50:29.742Z,5.20
2018-11-14T15:52:59.274Z,5.42
2018-11-14T15:55:29.396Z,5.10
2018-11-14T15:57:58.630Z,5.65
2018-11-14T16:00:28.960Z,6.10
2018-11-14T16:02:58.702Z,6.62
2018-11-14T16:05:29.002Z,7.12
2018-11-14T16:08:00.266Z,6.80
2018-11-14T16:10:30.538Z,5.97
2018-11-14T16:12:59.719Z,5.42
2018-11-14T16:15:31.646Z,5.92
2018-11-14T16:18:01.561Z,5.60
2018-11-14T16:20:31.768Z,6.33
2018-11-14T16:23:00.886Z,6.08
2018-11-14T16:25:30.044Z,6.60
2018-11-14T16:28:00.974Z,7.12
2018-11-14T16:30:33.374Z,6.05
2018-11-14T16:33:05.654Z,5.58
2018-11-14T16:35:35.115Z,5.65
2018-11-14T16:38:04.490Z,5.22
2018-11-14T16:40:35.366Z,6.05
2018-11-14T16:43:06.742Z,5.83
2018-11-14T16:45:36.415Z,5.20
2018-11-14T16:48:05.550Z,5.35
2018-11-14T16:50:35.284Z,5.40
2018-11-14T16:53:04.900Z,5.83
2018-11-14T16:55:35.568Z,4.70
2018-11-14T16:58:05.384Z,6.00
2018-11-14T17:00:34.542Z,5.37
2018-11-14T17:03:03.715Z,5.65
2018-11-14T17:05:34.154Z,5.28
2018-11-14T17:08:04.984Z,5.40
2018-11-14T17:10:34.782Z,6.05
2018-11-14T17:13:04.079Z,5.70
2018-11-14T17:15:33.847Z,5.30
2018-11-14T17:18:02.974Z,5.25
2018-11-14T17:20:33.414Z,5.50
2018-11-14T17:23:02.627Z,5.70
2018-11-14T17:25:31.782Z,5.63
2018-11-14T17:28:02.218Z,5.47
2018-11-14T17:30:32.462Z,5.07
2018-11-14T17:33:02.156Z,4.80
2018-11-14T17:35:31.283Z,4.77
2018-11-14T17:38:00.419Z,4.80
2018-11-14T17:40:30.271Z,4.55
2018-11-14T17:42:59.655Z,3.97
2018-11-14T17:45:30.214Z,4.35
2018-11-14T17:47:59.672Z,3.60
2018-11-14T17:50:31.304Z,4.10
2018-11-14T17:53:01.262Z,3.70
2018-11-14T17:55:31.585Z,3.17
2018-11-14T17:58:01.265Z,3.70
2018-11-14T18:00:31.499Z,3.35
2018-11-14T18:03:01.403Z,3.60
2018-11-14T18:05:31.303Z,3.98
2018-11-14T18:08:01.789Z,3.58
2018-11-14T18:10:31.773Z,4.03
2018-11-14T18:13:01.995Z,3.33
2018-11-14T18:15:31.386Z,4.33
2018-11-14T18:18:01.120Z,4.10
2018-11-14T18:20:32.846Z,4.10
2018-11-14T18:23:02.172Z,3.98
2018-11-14T18:25:32.186Z,3.50
2018-11-14T18:28:01.854Z,3.22
2018-11-14T18:30:32.386Z,3.63
2018-11-14T18:33:02.900Z,3.80
2018-11-14T18:35:32.011Z,3.72
2018-11-14T18:38:01.116Z,3.70
2018-11-14T18:40:32.830Z,4.35
2018-11-14T18:43:01.979Z,4.05
2018-11-14T18:45:33.724Z,4.45
2018-11-14T18:48:04.774Z,4.78
2018-11-14T18:50:33.873Z,5.33
2018-11-14T18:53:02.991Z,5.00
2018-11-14T18:55:34.146Z,3.92
2018-11-14T18:58:04.263Z,4.08
2018-11-14T19:00:35.150Z,4.28
2018-11-14T19:03:04.462Z,4.40
2018-11-14T19:05:34.229Z,4.10
2018-11-14T19:08:04.171Z,4.95
2018-11-14T19:10:34.114Z,5.92
2018-11-14T19:13:04.862Z,5.10
2018-11-14T19:15:35.382Z,5.47
2018-11-14T19:18:05.345Z,5.45
2018-11-14T19:20:36.084Z,5.58
2018-11-14T19:23:06.120Z,6.22
2018-11-14T19:25:36.677Z,5.30
2018-11-14T19:28:06.597Z,5.65
2018-11-14T19:30:37.395Z,5.05
2018-11-14T19:33:07.747Z,6.67
2018-11-14T19:35:36.976Z,5.55
2018-11-14T19:38:06.812Z,4.92
2018-11-14T19:40:37.388Z,5.20
2018-11-14T19:43:09.046Z,4.80
2018-11-14T19:45:39.993Z,4.30
2018-11-14T19:48:09.531Z,5.10
2018-11-14T19:50:38.904Z,5.10
2018-11-14T19:53:08.219Z,4.90
2018-11-14T19:55:37.953Z,5.40
2018-11-14T19:58:07.771Z,4.35
2018-11-14T20:00:38.265Z,4.75
2018-11-14T20:03:08.732Z,5.65
2018-11-14T20:05:37.868Z,4.30
2018-11-14T20:08:07.602Z,4.58
2018-11-14T20:10:36.862Z,4.65
2018-11-14T20:13:06.255Z,5.45
2018-11-14T20:15:36.872Z,3.90
2018-11-14T20:18:07.706Z,4.53
2018-11-14T20:20:38.906Z,4.35
2018-11-14T20:23:08.208Z,4.35
2018-11-14T20:25:37.361Z,3.95
2018-11-14T20:28:07.051Z,3.92
2018-11-14T20:30:38.610Z,4.15
2018-11-14T20:33:11.010Z,3.50
2018-11-14T20:35:40.234Z,4.35
2018-11-14T20:38:09.446Z,4.30
2018-11-14T20:40:40.942Z,4.62
2018-11-14T20:43:10.087Z,3.70
2018-11-14T20:45:39.503Z,4.28
2018-11-14T20:48:09.402Z,3.98
2018-11-14T20:50:39.467Z,3.85
2018-11-14T20:53:08.725Z,4.42
2018-11-14T20:55:39.705Z,3.62
2018-11-14T20:58:09.002Z,3.50
2018-11-14T21:00:38.964Z,4.30
2018-11-14T21:03:08.664Z,4.35
2018-11-14T21:05:37.772Z,3.65
2018-11-14T21:08:08.168Z,3.90
2018-11-14T21:10:38.785Z,3.42
2018-11-14T21:13:07.891Z,3.60
2018-11-14T21:15:38.890Z,3.20
2018-11-14T21:18:08.950Z,3.65
2018-11-14T21:20:39.163Z,3.58
2018-11-14T21:23:08.461Z,3.47
2018-11-14T21:25:38.270Z,3.30
2018-11-14T21:28:08.015Z,3.60
2018-11-14T21:30:38.507Z,3.62
2018-11-14T21:33:08.198Z,3.87
2018-11-14T21:35:37.882Z,3.47
2018-11-14T21:38:08.267Z,3.20
2018-11-14T21:40:38.301Z,3.40
2018-11-14T21:43:08.242Z,3.20
2018-11-14T21:45:37.466Z,3.33
2018-11-14T21:48:17.223Z,3.20
2018-11-14T21:50:46.863Z,2.75
2018-11-14T21:53:16.836Z,3.05
2018-11-14T21:55:46.759Z,3.55
2018-11-14T21:58:17.091Z,3.27
2018-11-14T22:00:46.274Z,3.12
2018-11-14T22:03:15.494Z,3.58
2018-11-14T22:05:45.236Z,3.37
2018-11-14T22:08:16.513Z,3.37
2018-11-14T22:10:46.789Z,3.02
2018-11-14T22:13:15.874Z,3.25
2018-11-14T22:15:45.149Z,3.37
2018-11-14T22:18:15.069Z,3.37
2018-11-14T22:20:46.160Z,3.45
2018-11-14T22:23:15.249Z,2.85
2018-11-14T22:25:44.326Z,3.45
2018-11-14T22:28:14.833Z,3.20
2018-11-14T22:30:44.642Z,3.22
2018-11-14T22:33:14.342Z,3.22
2018-11-14T22:35:44.097Z,3.60
2018-11-14T22:38:13.563Z,3.35
2018-11-14T22:40:44.441Z,3.15
2018-11-14T22:43:13.528Z,3.17
2018-11-14T22:45:42.589Z,3.10
2018-11-14T22:48:12.550Z,3.50
2018-11-14T22:50:42.752Z,3.00
2018-11-14T22:53:12.734Z,3.15
2018-11-14T22:55:42.458Z,2.70
2018-11-14T22:58:11.758Z,3.30
2018-11-14T23:00:43.882Z,2.92
2018-11-14T23:03:13.157Z,3.00
2018-11-14T23:05:42.305Z,2.98
2018-11-14T23:08:11.912Z,2.90
2018-11-14T23:10:41.030Z,2.80
2018-11-14T23:13:11.293Z,3.22
2018-11-14T23:15:40.442Z,3.10
2018-11-14T23:18:10.025Z,3.22
2018-11-14T23:20:39.722Z,2.90
2018-11-14T23:23:08.806Z,3.22
2018-11-14T23:25:40.508Z,2.72
2018-11-14T23:28:10.074Z,3.20
2018-11-14T23:30:40.129Z,2.60
2018-11-14T23:33:10.042Z,2.77
2018-11-14T23:35:40.370Z,3.02
2018-11-14T23:38:09.547Z,3.00
2018-11-14T23:40:39.337Z,3.12
2018-11-14T23:43:09.154Z,3.05
2018-11-14T23:45:39.005Z,3.50
2018-11-14T23:48:08.702Z,3.25
2018-11-14T23:50:38.750Z,2.85
2018-11-14T23:53:07.861Z,3.15
2018-11-14T23:55:38.462Z,2.85
2018-11-14T23:58:08.389Z,3.12
